sensor_id;sensor_type;location;lat;lon;timestamp;temperature;humidity
15459;DHT22;59054;48.692;9.136;2022-08-06T00:02:17;20.80;82.30
15459;DHT22;59054;48.692;9.136;2022-08-06T00:04:46;20.80;82.60
15459;DHT22;59054;48.692;9.136;2022-08-06T00:07:12;20.80;82.00
15459;DHT22;59054;48.692;9.136;2022-08-06T00:09:39;21.00;80.80
15459;DHT22;59054;48.692;9.136;2022-08-06T00:12:08;20.90;81.00
15459;DHT22;59054;48.692;9.136;2022-08-06T00:14:35;20.90;82.40
15459;DHT22;59054;48.692;9.136;2022-08-06T00:17:02;20.60;84.50
15459;DHT22;59054;48.692;9.136;2022-08-06T00:19:29;20.80;82.50
15459;DHT22;59054;48.692;9.136;2022-08-06T00:21:55;20.80;82.80
15459;DHT22;59054;48.692;9.136;2022-08-06T00:24:22;20.80;83.70
15459;DHT22;59054;48.692;9.136;2022-08-06T00:26:49;20.70;82.80
15459;DHT22;59054;48.692;9.136;2022-08-06T00:29:17;20.60;85.10
15459;DHT22;59054;48.692;9.136;2022-08-06T00:34:12;20.40;85.10
15459;DHT22;59054;48.692;9.136;2022-08-06T00:36:39;20.50;86.30
15459;DHT22;59054;48.692;9.136;2022-08-06T00:39:06;20.50;84.10
15459;DHT22;59054;48.692;9.136;2022-08-06T00:41:33;20.30;84.90
15459;DHT22;59054;48.692;9.136;2022-08-06T00:44:00;20.70;85.60
15459;DHT22;59054;48.692;9.136;2022-08-06T00:46:29;20.80;83.40
15459;DHT22;59054;48.692;9.136;2022-08-06T00:48:56;20.60;83.90
15459;DHT22;59054;48.692;9.136;2022-08-06T00:51:22;20.70;85.20
15459;DHT22;59054;48.692;9.136;2022-08-06T00:53:49;20.50;86.80
15459;DHT22;59054;48.692;9.136;2022-08-06T00:56:16;20.50;85.00
15459;DHT22;59054;48.692;9.136;2022-08-06T00:58:43;20.30;84.30
15459;DHT22;59054;48.692;9.136;2022-08-06T01:01:10;20.50;84.60
15459;DHT22;59054;48.692;9.136;2022-08-06T01:03:38;20.50;84.60
15459;DHT22;59054;48.692;9.136;2022-08-06T01:06:05;20.40;84.00
15459;DHT22;59054;48.692;9.136;2022-08-06T01:08:32;20.40;85.30
15459;DHT22;59054;48.692;9.136;2022-08-06T01:10:59;20.40;83.40
15459;DHT22;59054;48.692;9.136;2022-08-06T01:13:25;20.20;84.30
15459;DHT22;59054;48.692;9.136;2022-08-06T01:15:55;20.30;82.80
15459;DHT22;59054;48.692;9.136;2022-08-06T01:18:23;20.30;81.90
15459;DHT22;59054;48.692;9.136;2022-08-06T01:20:57;20.40;82.50
15459;DHT22;59054;48.692;9.136;2022-08-06T01:23:34;20.50;82.80
15459;DHT22;59054;48.692;9.136;2022-08-06T01:26:14;20.30;82.00
15459;DHT22;59054;48.692;9.136;2022-08-06T01:28:49;20.40;82.00
15459;DHT22;59054;48.692;9.136;2022-08-06T01:31:18;20.10;81.10
15459;DHT22;59054;48.692;9.136;2022-08-06T01:33:47;20.20;84.90
15459;DHT22;59054;48.692;9.136;2022-08-06T01:36:18;20.30;81.00
15459;DHT22;59054;48.692;9.136;2022-08-06T01:38:47;20.40;81.50
15459;DHT22;59054;48.692;9.136;2022-08-06T01:41:16;20.40;82.60
15459;DHT22;59054;48.692;9.136;2022-08-06T01:44:05;20.30;82.20
15459;DHT22;59054;48.692;9.136;2022-08-06T01:46:32;20.30;79.60
15459;DHT22;59054;48.692;9.136;2022-08-06T01:48:59;20.30;79.00
15459;DHT22;59054;48.692;9.136;2022-08-06T01:51:27;20.40;78.40
15459;DHT22;59054;48.692;9.136;2022-08-06T01:53:54;20.00;78.70
15459;DHT22;59054;48.692;9.136;2022-08-06T01:56:22;20.00;77.20
15459;DHT22;59054;48.692;9.136;2022-08-06T01:58:49;20.00;78.20
15459;DHT22;59054;48.692;9.136;2022-08-06T02:01:19;19.90;78.70
15459;DHT22;59054;48.692;9.136;2022-08-06T02:03:46;19.90;78.90
15459;DHT22;59054;48.692;9.136;2022-08-06T02:06:16;19.90;80.40
15459;DHT22;59054;48.692;9.136;2022-08-06T02:08:44;19.80;77.80
15459;DHT22;59054;48.692;9.136;2022-08-06T02:11:12;19.70;78.40
15459;DHT22;59054;48.692;9.136;2022-08-06T02:13:40;19.90;82.40
15459;DHT22;59054;48.692;9.136;2022-08-06T02:16:11;19.90;79.70
15459;DHT22;59054;48.692;9.136;2022-08-06T02:18:40;19.60;78.70
15459;DHT22;59054;48.692;9.136;2022-08-06T02:21:10;19.80;82.40
15459;DHT22;59054;48.692;9.136;2022-08-06T02:23:38;19.60;77.30
15459;DHT22;59054;48.692;9.136;2022-08-06T02:26:05;19.70;79.90
15459;DHT22;59054;48.692;9.136;2022-08-06T02:28:34;19.40;78.10
15459;DHT22;59054;48.692;9.136;2022-08-06T02:31:01;19.30;79.20
15459;DHT22;59054;48.692;9.136;2022-08-06T02:33:33;19.50;77.80
15459;DHT22;59054;48.692;9.136;2022-08-06T02:36:02;19.40;79.40
15459;DHT22;59054;48.692;9.136;2022-08-06T02:38:31;19.20;79.60
15459;DHT22;59054;48.692;9.136;2022-08-06T02:41:02;19.40;80.50
15459;DHT22;59054;48.692;9.136;2022-08-06T02:43:32;19.40;79.00
15459;DHT22;59054;48.692;9.136;2022-08-06T02:46:01;19.40;80.00
15459;DHT22;59054;48.692;9.136;2022-08-06T02:48:30;19.30;80.40
15459;DHT22;59054;48.692;9.136;2022-08-06T02:51:04;19.50;79.80
15459;DHT22;59054;48.692;9.136;2022-08-06T02:53:34;19.50;79.30
15459;DHT22;59054;48.692;9.136;2022-08-06T02:56:04;19.60;80.40
15459;DHT22;59054;48.692;9.136;2022-08-06T02:58:33;19.20;78.20
15459;DHT22;59054;48.692;9.136;2022-08-06T03:01:02;19.10;79.80
15459;DHT22;59054;48.692;9.136;2022-08-06T03:03:31;19.20;81.80
15459;DHT22;59054;48.692;9.136;2022-08-06T03:05:58;19.30;80.50
15459;DHT22;59054;48.692;9.136;2022-08-06T03:08:31;19.10;80.30
15459;DHT22;59054;48.692;9.136;2022-08-06T03:10:59;18.90;80.30
15459;DHT22;59054;48.692;9.136;2022-08-06T03:13:26;18.80;81.30
15459;DHT22;59054;48.692;9.136;2022-08-06T03:15:54;18.90;81.70
15459;DHT22;59054;48.692;9.136;2022-08-06T03:18:21;19.00;82.00
15459;DHT22;59054;48.692;9.136;2022-08-06T03:20:51;19.10;81.70
15459;DHT22;59054;48.692;9.136;2022-08-06T03:23:21;19.10;81.40
15459;DHT22;59054;48.692;9.136;2022-08-06T03:25:50;19.10;80.60
15459;DHT22;59054;48.692;9.136;2022-08-06T03:28:17;19.10;81.60
15459;DHT22;59054;48.692;9.136;2022-08-06T03:30:44;19.00;82.80
15459;DHT22;59054;48.692;9.136;2022-08-06T03:33:12;18.90;82.80
15459;DHT22;59054;48.692;9.136;2022-08-06T03:35:39;18.90;81.30
15459;DHT22;59054;48.692;9.136;2022-08-06T03:38:09;18.70;82.50
15459;DHT22;59054;48.692;9.136;2022-08-06T03:40:37;18.80;82.20
15459;DHT22;59054;48.692;9.136;2022-08-06T03:43:05;18.80;84.00
15459;DHT22;59054;48.692;9.136;2022-08-06T03:45:36;19.20;83.20
15459;DHT22;59054;48.692;9.136;2022-08-06T03:48:04;19.00;83.00
15459;DHT22;59054;48.692;9.136;2022-08-06T03:50:33;19.10;82.60
15459;DHT22;59054;48.692;9.136;2022-08-06T03:53:01;19.20;83.50
15459;DHT22;59054;48.692;9.136;2022-08-06T03:55:34;18.80;82.60
15459;DHT22;59054;48.692;9.136;2022-08-06T03:58:03;18.90;84.80
15459;DHT22;59054;48.692;9.136;2022-08-06T04:00:35;18.80;83.50
15459;DHT22;59054;48.692;9.136;2022-08-06T04:03:03;18.80;83.60
15459;DHT22;59054;48.692;9.136;2022-08-06T04:05:30;18.90;85.60
15459;DHT22;59054;48.692;9.136;2022-08-06T04:07:59;18.90;83.70
15459;DHT22;59054;48.692;9.136;2022-08-06T04:10:28;18.90;84.20
15459;DHT22;59054;48.692;9.136;2022-08-06T04:12:55;19.10;85.30
15459;DHT22;59054;48.692;9.136;2022-08-06T04:15:22;19.00;84.00
15459;DHT22;59054;48.692;9.136;2022-08-06T04:17:54;19.10;84.80
15459;DHT22;59054;48.692;9.136;2022-08-06T04:20:21;19.10;84.00
15459;DHT22;59054;48.692;9.136;2022-08-06T04:22:51;18.90;84.60
15459;DHT22;59054;48.692;9.136;2022-08-06T04:25:18;18.90;86.00
15459;DHT22;59054;48.692;9.136;2022-08-06T04:27:44;19.00;86.10
15459;DHT22;59054;48.692;9.136;2022-08-06T04:30:16;19.00;83.90
15459;DHT22;59054;48.692;9.136;2022-08-06T04:32:44;18.90;86.10
15459;DHT22;59054;48.692;9.136;2022-08-06T04:35:13;18.90;85.50
15459;DHT22;59054;48.692;9.136;2022-08-06T04:37:41;19.20;85.20
15459;DHT22;59054;48.692;9.136;2022-08-06T04:40:11;19.20;83.80
15459;DHT22;59054;48.692;9.136;2022-08-06T04:42:40;19.20;87.00
15459;DHT22;59054;48.692;9.136;2022-08-06T04:45:11;19.30;85.30
15459;DHT22;59054;48.692;9.136;2022-08-06T04:47:37;19.30;83.40
15459;DHT22;59054;48.692;9.136;2022-08-06T04:50:07;19.00;84.90
15459;DHT22;59054;48.692;9.136;2022-08-06T09:15:37;22.50;71.10
15459;DHT22;59054;48.692;9.136;2022-08-06T09:18:04;22.40;69.50
15459;DHT22;59054;48.692;9.136;2022-08-06T09:20:31;22.30;67.70
15459;DHT22;59054;48.692;9.136;2022-08-06T09:22:58;22.40;69.80
15459;DHT22;59054;48.692;9.136;2022-08-06T09:25:34;22.30;68.70
15459;DHT22;59054;48.692;9.136;2022-08-06T09:28:03;22.00;69.30
15459;DHT22;59054;48.692;9.136;2022-08-06T09:30:31;21.90;71.00
15459;DHT22;59054;48.692;9.136;2022-08-06T09:33:00;22.20;73.10
15459;DHT22;59054;48.692;9.136;2022-08-06T09:35:27;22.00;71.20
15459;DHT22;59054;48.692;9.136;2022-08-06T09:37:59;21.90;72.60
15459;DHT22;59054;48.692;9.136;2022-08-06T09:40:26;22.30;71.40
15459;DHT22;59054;48.692;9.136;2022-08-06T09:42:52;22.50;67.50
15459;DHT22;59054;48.692;9.136;2022-08-06T09:45:20;23.00;65.40
15459;DHT22;59054;48.692;9.136;2022-08-06T09:47:48;23.50;64.30
15459;DHT22;59054;48.692;9.136;2022-08-06T09:50:16;23.80;63.80
15459;DHT22;59054;48.692;9.136;2022-08-06T09:53:00;23.70;64.80
15459;DHT22;59054;48.692;9.136;2022-08-06T09:55:28;23.20;66.80
15459;DHT22;59054;48.692;9.136;2022-08-06T09:57:55;22.90;67.20
15459;DHT22;59054;48.692;9.136;2022-08-06T10:00:25;22.80;67.00
15459;DHT22;59054;48.692;9.136;2022-08-06T10:02:56;22.40;67.70
15459;DHT22;59054;48.692;9.136;2022-08-06T10:05:24;22.50;68.00
15459;DHT22;59054;48.692;9.136;2022-08-06T10:08:02;22.40;68.00
15459;DHT22;59054;48.692;9.136;2022-08-06T10:10:42;22.40;66.70
15459;DHT22;59054;48.692;9.136;2022-08-06T10:13:16;22.90;65.10
15459;DHT22;59054;48.692;9.136;2022-08-06T10:15:43;23.40;65.60
15459;DHT22;59054;48.692;9.136;2022-08-06T10:18:13;23.80;64.80
15459;DHT22;59054;48.692;9.136;2022-08-06T10:21:03;23.50;62.80
15459;DHT22;59054;48.692;9.136;2022-08-06T10:23:31;23.30;64.60
15459;DHT22;59054;48.692;9.136;2022-08-06T10:25:58;23.20;64.60
15459;DHT22;59054;48.692;9.136;2022-08-06T10:28:25;23.40;64.10
15459;DHT22;59054;48.692;9.136;2022-08-06T10:30:53;23.40;65.10
15459;DHT22;59054;48.692;9.136;2022-08-06T10:33:20;23.40;64.20
15459;DHT22;59054;48.692;9.136;2022-08-06T10:35:48;23.20;62.60
15459;DHT22;59054;48.692;9.136;2022-08-06T10:38:20;23.20;63.60
15459;DHT22;59054;48.692;9.136;2022-08-06T10:40:47;23.20;63.50
15459;DHT22;59054;48.692;9.136;2022-08-06T10:43:14;23.00;64.50
15459;DHT22;59054;48.692;9.136;2022-08-06T10:45:41;23.20;64.80
15459;DHT22;59054;48.692;9.136;2022-08-06T10:48:08;23.00;62.30
15459;DHT22;59054;48.692;9.136;2022-08-06T10:50:36;23.10;63.40
15459;DHT22;59054;48.692;9.136;2022-08-06T10:53:03;22.90;61.30
15459;DHT22;59054;48.692;9.136;2022-08-06T10:55:32;23.00;62.00
15459;DHT22;59054;48.692;9.136;2022-08-06T10:57:59;23.00;61.60
15459;DHT22;59054;48.692;9.136;2022-08-06T11:00:26;23.80;59.40
15459;DHT22;59054;48.692;9.136;2022-08-06T11:02:56;24.00;59.40
15459;DHT22;59054;48.692;9.136;2022-08-06T11:05:41;23.90;62.00
15459;DHT22;59054;48.692;9.136;2022-08-06T11:08:11;23.60;59.90
15459;DHT22;59054;48.692;9.136;2022-08-06T11:10:46;23.30;61.50
15459;DHT22;59054;48.692;9.136;2022-08-06T11:13:17;23.40;62.70
15459;DHT22;59054;48.692;9.136;2022-08-06T11:15:45;23.30;63.30
15459;DHT22;59054;48.692;9.136;2022-08-06T11:18:12;23.50;62.60
15459;DHT22;59054;48.692;9.136;2022-08-06T11:20:41;23.50;63.50
15459;DHT22;59054;48.692;9.136;2022-08-06T11:25:53;23.80;61.50
15459;DHT22;59054;48.692;9.136;2022-08-06T11:31:03;23.80;59.40
15459;DHT22;59054;48.692;9.136;2022-08-06T11:36:25;26.00;56.50
15459;DHT22;59054;48.692;9.136;2022-08-06T11:38:58;27.50;53.60
15459;DHT22;59054;48.692;9.136;2022-08-06T11:41:26;27.70;51.00
15459;DHT22;59054;48.692;9.136;2022-08-06T11:44:07;28.00;52.50
15459;DHT22;59054;48.692;9.136;2022-08-06T11:46:34;29.00;50.60
15459;DHT22;59054;48.692;9.136;2022-08-06T11:51:48;27.80;49.80
15459;DHT22;59054;48.692;9.136;2022-08-06T11:54:16;26.30;53.10
15459;DHT22;59054;48.692;9.136;2022-08-06T11:59:30;25.50;56.40
15459;DHT22;59054;48.692;9.136;2022-08-06T12:01:57;25.90;53.30
15459;DHT22;59054;48.692;9.136;2022-08-06T12:04:40;25.50;53.00
15459;DHT22;59054;48.692;9.136;2022-08-06T12:07:14;26.10;52.60
15459;DHT22;59054;48.692;9.136;2022-08-06T12:09:41;27.20;50.70
15459;DHT22;59054;48.692;9.136;2022-08-06T12:14:54;26.30;51.00
15459;DHT22;59054;48.692;9.136;2022-08-06T12:17:21;26.10;52.20
15459;DHT22;59054;48.692;9.136;2022-08-06T12:19:49;26.00;52.60
15459;DHT22;59054;48.692;9.136;2022-08-06T12:22:18;27.30;51.50
15459;DHT22;59054;48.692;9.136;2022-08-06T12:24:47;26.90;50.60
15459;DHT22;59054;48.692;9.136;2022-08-06T12:27:15;27.20;52.20
15459;DHT22;59054;48.692;9.136;2022-08-06T12:29:42;27.60;49.50
15459;DHT22;59054;48.692;9.136;2022-08-06T12:32:18;27.80;49.60
15459;DHT22;59054;48.692;9.136;2022-08-06T12:34:45;28.10;49.30
15459;DHT22;59054;48.692;9.136;2022-08-06T12:37:12;27.20;50.20
15459;DHT22;59054;48.692;9.136;2022-08-06T12:39:40;26.50;51.00
15459;DHT22;59054;48.692;9.136;2022-08-06T12:42:25;26.40;52.40
15459;DHT22;59054;48.692;9.136;2022-08-06T12:44:52;26.90;52.60
15459;DHT22;59054;48.692;9.136;2022-08-06T12:47:19;26.60;50.00
15459;DHT22;59054;48.692;9.136;2022-08-06T12:49:46;27.40;51.50
15459;DHT22;59054;48.692;9.136;2022-08-06T12:52:13;28.60;50.50
15459;DHT22;59054;48.692;9.136;2022-08-06T12:54:43;28.50;45.90
15459;DHT22;59054;48.692;9.136;2022-08-06T12:57:18;28.20;44.90
15459;DHT22;59054;48.692;9.136;2022-08-06T12:59:45;27.70;48.70
15459;DHT22;59054;48.692;9.136;2022-08-06T13:02:12;27.30;47.80
15459;DHT22;59054;48.692;9.136;2022-08-06T13:04:46;29.20;45.10
15459;DHT22;59054;48.692;9.136;2022-08-06T13:07:14;28.90;43.50
15459;DHT22;59054;48.692;9.136;2022-08-06T13:09:41;30.00;44.10
15459;DHT22;59054;48.692;9.136;2022-08-06T13:12:13;29.90;42.60
15459;DHT22;59054;48.692;9.136;2022-08-06T13:14:50;28.60;45.50
15459;DHT22;59054;48.692;9.136;2022-08-06T13:17:18;27.90;45.70
15459;DHT22;59054;48.692;9.136;2022-08-06T13:19:50;28.80;45.90
15459;DHT22;59054;48.692;9.136;2022-08-06T13:22:16;28.60;42.40
15459;DHT22;59054;48.692;9.136;2022-08-06T13:24:43;28.40;45.40
15459;DHT22;59054;48.692;9.136;2022-08-06T13:27:10;28.00;45.80
15459;DHT22;59054;48.692;9.136;2022-08-06T13:29:47;27.00;47.00
15459;DHT22;59054;48.692;9.136;2022-08-06T13:32:24;26.50;47.60
15459;DHT22;59054;48.692;9.136;2022-08-06T13:34:53;26.50;48.50
15459;DHT22;59054;48.692;9.136;2022-08-06T13:37:40;26.70;47.50
15459;DHT22;59054;48.692;9.136;2022-08-06T13:40:07;27.40;47.80
15459;DHT22;59054;48.692;9.136;2022-08-06T13:42:46;28.70;48.00
15459;DHT22;59054;48.692;9.136;2022-08-06T13:45:21;29.40;45.10
15459;DHT22;59054;48.692;9.136;2022-08-06T13:47:48;30.00;43.70
15459;DHT22;59054;48.692;9.136;2022-08-06T13:50:16;30.40;42.10
15459;DHT22;59054;48.692;9.136;2022-08-06T13:52:43;30.60;42.90
15459;DHT22;59054;48.692;9.136;2022-08-06T13:55:09;31.20;39.40
15459;DHT22;59054;48.692;9.136;2022-08-06T13:57:36;31.40;39.40
15459;DHT22;59054;48.692;9.136;2022-08-06T14:00:04;31.00;40.50
15459;DHT22;59054;48.692;9.136;2022-08-06T14:02:33;30.20;39.80
15459;DHT22;59054;48.692;9.136;2022-08-06T14:04:59;30.50;42.20
15459;DHT22;59054;48.692;9.136;2022-08-06T14:07:26;30.10;40.30
15459;DHT22;59054;48.692;9.136;2022-08-06T14:09:53;30.00;41.30
15459;DHT22;59054;48.692;9.136;2022-08-06T14:12:20;28.80;39.40
15459;DHT22;59054;48.692;9.136;2022-08-06T14:14:46;28.50;41.60
15459;DHT22;59054;48.692;9.136;2022-08-06T14:17:14;29.50;42.50
15459;DHT22;59054;48.692;9.136;2022-08-06T14:19:42;30.30;39.80
15459;DHT22;59054;48.692;9.136;2022-08-06T14:22:09;30.40;39.50
15459;DHT22;59054;48.692;9.136;2022-08-06T14:24:36;29.60;39.40
15459;DHT22;59054;48.692;9.136;2022-08-06T14:27:03;29.00;42.00
15459;DHT22;59054;48.692;9.136;2022-08-06T14:29:30;28.80;41.40
15459;DHT22;59054;48.692;9.136;2022-08-06T14:31:57;28.00;41.60
15459;DHT22;59054;48.692;9.136;2022-08-06T14:34:23;27.50;41.80
15459;DHT22;59054;48.692;9.136;2022-08-06T14:36:52;27.40;44.40
15459;DHT22;59054;48.692;9.136;2022-08-06T14:39:18;27.50;45.10
15459;DHT22;59054;48.692;9.136;2022-08-06T14:41:45;27.20;46.20
15459;DHT22;59054;48.692;9.136;2022-08-06T14:44:29;27.00;46.20
15459;DHT22;59054;48.692;9.136;2022-08-06T14:47:13;26.70;46.90
15459;DHT22;59054;48.692;9.136;2022-08-06T14:49:40;26.70;45.60
15459;DHT22;59054;48.692;9.136;2022-08-06T14:52:08;26.60;46.00
15459;DHT22;59054;48.692;9.136;2022-08-06T14:54:35;26.80;46.20
15459;DHT22;59054;48.692;9.136;2022-08-06T14:57:03;27.00;43.70
15459;DHT22;59054;48.692;9.136;2022-08-06T14:59:30;27.10;43.70
15459;DHT22;59054;48.692;9.136;2022-08-06T15:01:56;27.70;42.30
15459;DHT22;59054;48.692;9.136;2022-08-06T15:04:23;27.90;41.70
15459;DHT22;59054;48.692;9.136;2022-08-06T15:06:50;28.20;41.50
15459;DHT22;59054;48.692;9.136;2022-08-06T15:09:19;28.40;41.70
15459;DHT22;59054;48.692;9.136;2022-08-06T15:11:46;27.90;42.20
15459;DHT22;59054;48.692;9.136;2022-08-06T15:14:13;27.40;41.90
15459;DHT22;59054;48.692;9.136;2022-08-06T15:16:40;26.90;43.20
15459;DHT22;59054;48.692;9.136;2022-08-06T15:19:07;26.80;43.60
15459;DHT22;59054;48.692;9.136;2022-08-06T15:21:34;26.80;44.20
15459;DHT22;59054;48.692;9.136;2022-08-06T15:24:00;26.40;45.10
15459;DHT22;59054;48.692;9.136;2022-08-06T15:26:32;26.50;44.40
15459;DHT22;59054;48.692;9.136;2022-08-06T15:28:59;26.70;44.60
15459;DHT22;59054;48.692;9.136;2022-08-06T15:31:26;26.80;44.30
15459;DHT22;59054;48.692;9.136;2022-08-06T15:33:53;26.70;43.90
15459;DHT22;59054;48.692;9.136;2022-08-06T15:36:20;26.80;43.50
15459;DHT22;59054;48.692;9.136;2022-08-06T15:38:46;26.90;44.00
15459;DHT22;59054;48.692;9.136;2022-08-06T15:41:13;26.60;44.20
15459;DHT22;59054;48.692;9.136;2022-08-06T15:43:41;26.60;43.90
15459;DHT22;59054;48.692;9.136;2022-08-06T15:46:08;27.20;42.50
15459;DHT22;59054;48.692;9.136;2022-08-06T15:48:35;27.20;43.50
15459;DHT22;59054;48.692;9.136;2022-08-06T15:51:01;26.90;44.80
15459;DHT22;59054;48.692;9.136;2022-08-06T15:53:28;26.60;45.00
15459;DHT22;59054;48.692;9.136;2022-08-06T15:55:55;26.60;44.20
15459;DHT22;59054;48.692;9.136;2022-08-06T15:58:22;26.60;44.80
15459;DHT22;59054;48.692;9.136;2022-08-06T16:00:50;26.40;43.10
15459;DHT22;59054;48.692;9.136;2022-08-06T16:03:17;26.20;43.40
15459;DHT22;59054;48.692;9.136;2022-08-06T16:05:44;26.20;44.70
15459;DHT22;59054;48.692;9.136;2022-08-06T16:08:11;26.30;44.50
15459;DHT22;59054;48.692;9.136;2022-08-06T16:10:42;26.20;44.10
15459;DHT22;59054;48.692;9.136;2022-08-06T16:13:09;26.30;44.30
15459;DHT22;59054;48.692;9.136;2022-08-06T16:15:41;26.40;43.10
15459;DHT22;59054;48.692;9.136;2022-08-06T16:18:09;26.10;43.60
15459;DHT22;59054;48.692;9.136;2022-08-06T16:20:37;26.10;45.60
15459;DHT22;59054;48.692;9.136;2022-08-06T16:23:04;25.80;46.10
15459;DHT22;59054;48.692;9.136;2022-08-06T16:25:31;25.70;44.60
15459;DHT22;59054;48.692;9.136;2022-08-06T16:27:57;25.70;45.50
15459;DHT22;59054;48.692;9.136;2022-08-06T16:30:24;25.60;46.20
15459;DHT22;59054;48.692;9.136;2022-08-06T16:32:51;25.60;47.00
15459;DHT22;59054;48.692;9.136;2022-08-06T16:35:19;26.00;44.30
15459;DHT22;59054;48.692;9.136;2022-08-06T16:37:46;26.10;45.00
15459;DHT22;59054;48.692;9.136;2022-08-06T16:40:12;26.10;43.90
15459;DHT22;59054;48.692;9.136;2022-08-06T16:42:39;25.90;44.30
15459;DHT22;59054;48.692;9.136;2022-08-06T16:45:06;25.60;45.00
15459;DHT22;59054;48.692;9.136;2022-08-06T16:47:33;25.70;46.50
15459;DHT22;59054;48.692;9.136;2022-08-06T16:50:00;25.70;45.10
15459;DHT22;59054;48.692;9.136;2022-08-06T16:55:16;25.20;45.40
15459;DHT22;59054;48.692;9.136;2022-08-06T16:57:43;25.20;45.70
15459;DHT22;59054;48.692;9.136;2022-08-06T17:00:11;25.10;46.40
15459;DHT22;59054;48.692;9.136;2022-08-06T17:02:39;25.00;46.30
15459;DHT22;59054;48.692;9.136;2022-08-06T17:05:06;24.90;46.40
15459;DHT22;59054;48.692;9.136;2022-08-06T17:07:34;24.90;46.60
15459;DHT22;59054;48.692;9.136;2022-08-06T17:10:01;24.90;47.50
15459;DHT22;59054;48.692;9.136;2022-08-06T17:12:29;24.90;45.90
15459;DHT22;59054;48.692;9.136;2022-08-06T17:14:56;24.90;45.80
15459;DHT22;59054;48.692;9.136;2022-08-06T17:17:23;24.80;47.50
15459;DHT22;59054;48.692;9.136;2022-08-06T17:19:50;24.70;47.40
15459;DHT22;59054;48.692;9.136;2022-08-06T17:22:17;24.70;47.60
15459;DHT22;59054;48.692;9.136;2022-08-06T17:24:44;24.60;47.50
15459;DHT22;59054;48.692;9.136;2022-08-06T17:27:12;24.50;47.60
15459;DHT22;59054;48.692;9.136;2022-08-06T17:29:41;24.40;48.90
15459;DHT22;59054;48.692;9.136;2022-08-06T17:32:08;24.30;48.30
15459;DHT22;59054;48.692;9.136;2022-08-06T17:34:36;24.30;48.20
15459;DHT22;59054;48.692;9.136;2022-08-06T17:37:03;24.20;48.20
15459;DHT22;59054;48.692;9.136;2022-08-06T17:39:30;24.20;48.10
15459;DHT22;59054;48.692;9.136;2022-08-06T17:41:57;24.10;48.40
15459;DHT22;59054;48.692;9.136;2022-08-06T17:44:24;24.10;49.10
15459;DHT22;59054;48.692;9.136;2022-08-06T17:46:52;24.10;48.20
15459;DHT22;59054;48.692;9.136;2022-08-06T17:49:18;24.10;49.40
15459;DHT22;59054;48.692;9.136;2022-08-06T17:51:45;24.00;49.60
15459;DHT22;59054;48.692;9.136;2022-08-06T17:54:12;24.10;49.10
15459;DHT22;59054;48.692;9.136;2022-08-06T17:56:39;24.10;49.60
15459;DHT22;59054;48.692;9.136;2022-08-06T17:59:07;24.00;48.30
15459;DHT22;59054;48.692;9.136;2022-08-06T18:01:34;23.90;48.10
15459;DHT22;59054;48.692;9.136;2022-08-06T18:04:03;23.90;48.70
15459;DHT22;59054;48.692;9.136;2022-08-06T18:06:30;23.90;48.90
15459;DHT22;59054;48.692;9.136;2022-08-06T18:08:56;23.90;51.70
15459;DHT22;59054;48.692;9.136;2022-08-06T18:11:23;23.80;51.20
15459;DHT22;59054;48.692;9.136;2022-08-06T18:13:50;23.80;50.90
15459;DHT22;59054;48.692;9.136;2022-08-06T18:16:16;23.80;50.20
15459;DHT22;59054;48.692;9.136;2022-08-06T18:18:43;23.70;49.20
15459;DHT22;59054;48.692;9.136;2022-08-06T18:21:14;23.70;46.50
15459;DHT22;59054;48.692;9.136;2022-08-06T18:23:41;23.60;46.70
15459;DHT22;59054;48.692;9.136;2022-08-06T18:26:08;23.60;41.80
15459;DHT22;59054;48.692;9.136;2022-08-06T18:28:34;23.60;42.30
15459;DHT22;59054;48.692;9.136;2022-08-06T18:31:01;23.50;42.50
15459;DHT22;59054;48.692;9.136;2022-08-06T18:33:30;23.50;43.30
15459;DHT22;59054;48.692;9.136;2022-08-06T18:35:59;23.40;43.50
15459;DHT22;59054;48.692;9.136;2022-08-06T18:38:28;23.40;42.90
15459;DHT22;59054;48.692;9.136;2022-08-06T18:40:54;23.30;44.00
15459;DHT22;59054;48.692;9.136;2022-08-06T18:43:22;23.20;44.10
15459;DHT22;59054;48.692;9.136;2022-08-06T18:45:49;23.10;42.00
15459;DHT22;59054;48.692;9.136;2022-08-06T18:48:17;23.10;42.00
15459;DHT22;59054;48.692;9.136;2022-08-06T18:50:44;23.10;42.00
15459;DHT22;59054;48.692;9.136;2022-08-06T18:53:10;23.00;42.00
15459;DHT22;59054;48.692;9.136;2022-08-06T18:55:38;23.00;41.80
15459;DHT22;59054;48.692;9.136;2022-08-06T18:58:05;22.90;41.40
15459;DHT22;59054;48.692;9.136;2022-08-06T19:00:32;22.80;42.00
15459;DHT22;59054;48.692;9.136;2022-08-06T19:03:01;22.70;42.20
15459;DHT22;59054;48.692;9.136;2022-08-06T19:05:28;22.60;41.80
15459;DHT22;59054;48.692;9.136;2022-08-06T19:07:55;22.60;42.10
15459;DHT22;59054;48.692;9.136;2022-08-06T19:10:21;22.60;40.90
15459;DHT22;59054;48.692;9.136;2022-08-06T19:12:51;22.50;41.20
15459;DHT22;59054;48.692;9.136;2022-08-06T19:15:18;22.50;41.90
15459;DHT22;59054;48.692;9.136;2022-08-06T19:17:44;22.60;41.40
15459;DHT22;59054;48.692;9.136;2022-08-06T19:20:13;22.50;40.50
15459;DHT22;59054;48.692;9.136;2022-08-06T19:22:41;22.60;42.70
15459;DHT22;59054;48.692;9.136;2022-08-06T19:25:09;22.40;40.30
15459;DHT22;59054;48.692;9.136;2022-08-06T19:27:36;22.30;41.10
15459;DHT22;59054;48.692;9.136;2022-08-06T19:30:04;22.30;40.40
15459;DHT22;59054;48.692;9.136;2022-08-06T19:32:31;22.20;39.80
15459;DHT22;59054;48.692;9.136;2022-08-06T19:34:58;22.20;40.60
15459;DHT22;59054;48.692;9.136;2022-08-06T19:37:26;22.20;40.70
15459;DHT22;59054;48.692;9.136;2022-08-06T19:39:52;22.10;40.30
15459;DHT22;59054;48.692;9.136;2022-08-06T19:42:39;22.10;41.10
15459;DHT22;59054;48.692;9.136;2022-08-06T19:45:08;22.00;40.30
15459;DHT22;59054;48.692;9.136;2022-08-06T19:47:35;22.00;38.70
15459;DHT22;59054;48.692;9.136;2022-08-06T19:50:02;21.90;38.90
15459;DHT22;59054;48.692;9.136;2022-08-06T19:52:29;21.80;40.20
15459;DHT22;59054;48.692;9.136;2022-08-06T19:54:56;21.60;39.30
15459;DHT22;59054;48.692;9.136;2022-08-06T19:57:23;21.70;40.20
15459;DHT22;59054;48.692;9.136;2022-08-06T19:59:50;21.80;39.70
15459;DHT22;59054;48.692;9.136;2022-08-06T20:02:18;21.80;39.80
15459;DHT22;59054;48.692;9.136;2022-08-06T20:04:44;21.80;39.60
15459;DHT22;59054;48.692;9.136;2022-08-06T20:07:11;21.50;40.00
15459;DHT22;59054;48.692;9.136;2022-08-06T20:09:38;21.60;39.50
15459;DHT22;59054;48.692;9.136;2022-08-06T20:12:05;21.50;39.40
15459;DHT22;59054;48.692;9.136;2022-08-06T20:14:32;21.50;39.40
15459;DHT22;59054;48.692;9.136;2022-08-06T20:16:59;21.50;39.70
15459;DHT22;59054;48.692;9.136;2022-08-06T20:19:28;21.40;40.10
15459;DHT22;59054;48.692;9.136;2022-08-06T20:21:54;21.50;40.60
15459;DHT22;59054;48.692;9.136;2022-08-06T20:24:22;21.50;40.40